Time;durP1;ratioP1;P1;durP2;ratioP2;P2;SDS_P1;SDS_P2;PMS_P1;PMS_P2;Temp;Humidity;BMP_temperature;BMP_pressure;BME280_temperature;BME280_humidity;BME280_pressure;Samples;Min_cycle;Max_cycle;Signal;HPM_P1;HPM_P2
2023/05/30 00:01:08;;;;;;;;;;;;;;;9.95;64.09;101821.20;108192;1265;65135;-83
2023/05/30 00:03:38;;;;;;;;;;;;;;;10.00;64.15;101823.68;107986;1265;125169;-82
2023/05/30 00:06:05;;;;;;;;;;;;;;;10.04;64.11;101826.33;108146;1265;59303;-83
2023/05/30 00:08:35;;;;;;;;;;;;;;;10.09;64.11;101821.64;108116;1265;124908;-83
2023/05/30 00:11:02;;;;;;;;;;;;;;;10.13;64.14;101818.48;108261;1265;73997;-82
2023/05/30 00:13:29;;;;;;;;;;;;;;;10.17;64.06;101816.20;108222;1265;67753;-82
2023/05/30 00:15:57;;;;;;;;;;;;;;;10.20;64.00;101818.80;108174;1265;126263;-83
2023/05/30 00:18:25;;;;;;;;;;;;;;;10.24;63.96;101817.73;108299;1265;59449;-83
2023/05/30 00:20:52;;;;;;;;;;;;;;;10.25;63.89;101821.14;108018;1265;125027;-83
2023/05/30 00:23:21;;;;;;;;;;;;;;;10.26;63.84;101820.84;108100;1265;73811;-83
2023/05/30 00:25:48;;;;;;;;;;;;;;;10.28;63.87;101816.14;108112;1265;65459;-83
2023/05/30 00:28:15;;;;;;;;;;;;;;;10.29;63.80;101818.98;108195;1265;126872;-83
2023/05/30 00:30:57;;;;;;;;;;;;;;;10.29;63.80;101815.30;108220;1265;59117;-83
2023/05/30 00:33:24;;;;;;;;;;;;;;;10.27;63.82;101815.44;108084;1265;124828;-83
2023/05/30 00:35:51;;;;;;;;;;;;;;;10.26;63.83;101814.50;108055;1265;77386;-83
2023/05/30 00:38:18;;;;;;;;;;;;;;;10.25;63.79;101814.79;108136;1265;125676;-83
2023/05/30 00:40:45;;;;;;;;;;;;;;;10.21;63.81;101813.23;108088;1265;71401;-83
2023/05/30 00:43:12;;;;;;;;;;;;;;;10.17;63.79;101811.30;108201;1269;59763;-83
2023/05/30 00:45:41;;;;;;;;;;;;;;;10.13;63.89;101809.92;108009;1265;124462;-82
2023/05/30 00:48:08;;;;;;;;;;;;;;;10.09;63.95;101808.16;108060;1270;74995;-83
2023/05/30 00:50:40;;;;;;;;;;;;;;;10.04;63.93;101807.21;108228;1265;124400;-83
2023/05/30 00:53:07;;;;;;;;;;;;;;;9.96;63.93;101804.94;108124;1272;72667;-83
2023/05/30 00:55:35;;;;;;;;;;;;;;;9.90;64.08;101805.35;108137;1265;59555;-83
2023/05/30 00:58:01;;;;;;;;;;;;;;;9.84;64.10;101807.57;108142;1265;125479;-83
2023/05/30 01:00:29;;;;;;;;;;;;;;;9.78;64.23;101807.82;108198;1265;74743;-84
2023/05/30 01:02:59;;;;;;;;;;;;;;;9.69;64.26;101806.39;108157;1265;124894;-83
2023/05/30 01:05:27;;;;;;;;;;;;;;;9.61;64.51;101807.38;108223;1265;73345;-83
2023/05/30 01:07:54;;;;;;;;;;;;;;;9.52;64.49;101808.56;108125;1265;59366;-83
2023/05/30 01:10:21;;;;;;;;;;;;;;;9.42;64.68;101809.49;107971;1265;125133;-83
2023/05/30 01:12:59;;;;;;;;;;;;;;;9.33;64.87;101809.45;108064;1268;75000;-83
2023/05/30 01:15:29;;;;;;;;;;;;;;;9.25;64.93;101808.52;107960;1265;124184;-83
2023/05/30 01:18:07;;;;;;;;;;;;;;;9.18;65.12;101813.47;108066;1265;72437;-83
2023/05/30 01:20:38;;;;;;;;;;;;;;;9.11;65.13;101816.31;108019;1265;124507;-82
2023/05/30 01:23:26;;;;;;;;;;;;;;;9.05;65.33;101814.95;108066;1265;60654;-82
2023/05/30 01:26:12;;;;;;;;;;;;;;;8.97;65.50;101815.79;108042;1265;75409;-82
2023/05/30 01:28:40;;;;;;;;;;;;;;;8.90;65.59;101819.80;108108;1265;66150;-82
2023/05/30 01:31:07;;;;;;;;;;;;;;;8.85;65.67;101822.91;108050;1265;71227;-82
2023/05/30 01:33:34;;;;;;;;;;;;;;;8.80;65.75;101821.58;108124;1265;124129;-82
2023/05/30 01:36:01;;;;;;;;;;;;;;;8.75;65.80;101821.86;108062;1271;60281;-82
2023/05/30 01:38:28;;;;;;;;;;;;;;;8.69;65.83;101817.38;108079;1265;125640;-82
2023/05/30 01:40:55;;;;;;;;;;;;;;;8.64;65.93;101817.67;108213;1270;67576;-82
2023/05/30 01:43:25;;;;;;;;;;;;;;;8.58;66.11;101811.95;108163;1265;72477;-82
2023/05/30 01:46:15;;;;;;;;;;;;;;;8.54;66.19;101812.13;108077;1265;124614;-82
2023/05/30 01:48:46;;;;;;;;;;;;;;;8.51;66.36;101815.08;108196;1270;60768;-83
2023/05/30 01:51:15;;;;;;;;;;;;;;;8.47;66.38;101814.36;108063;1265;125369;-83
2023/05/30 01:53:43;;;;;;;;;;;;;;;8.44;66.48;101812.81;108183;1270;65978;-83
2023/05/30 01:56:09;;;;;;;;;;;;;;;8.40;66.58;101810.48;107929;1265;124399;-83
2023/05/30 01:58:36;;;;;;;;;;;;;;;8.36;66.59;101807.15;108121;1265;59522;-82
2023/05/30 02:01:04;;;;;;;;;;;;;;;8.33;66.52;101804.55;108073;1270;59851;-83
2023/05/30 02:03:31;;;;;;;;;;;;;;;8.30;66.59;101804.91;108077;1270;123915;-83
2023/05/30 02:06:01;;;;;;;;;;;;;;;8.27;66.73;101809.29;107951;1267;67451;-83
2023/05/30 02:08:28;;;;;;;;;;;;;;;8.25;66.75;101809.73;107847;1273;125400;-82
2023/05/30 02:10:55;;;;;;;;;;;;;;;8.24;66.82;101812.45;108095;1270;59456;-82
2023/05/30 02:13:24;;;;;;;;;;;;;;;8.24;66.85;101811.05;108195;1265;60561;-83
2023/05/30 02:15:51;;;;;;;;;;;;;;;8.24;66.94;101808.80;108064;1266;125094;-83
2023/05/30 02:18:19;;;;;;;;;;;;;;;8.25;66.88;101814.09;108199;1267;65671;-83
2023/05/30 02:20:48;;;;;;;;;;;;;;;8.27;66.87;101816.30;107863;1265;125537;-83
2023/05/30 02:23:15;;;;;;;;;;;;;;;8.30;66.91;101813.80;108006;1265;60518;-83
2023/05/30 02:25:42;;;;;;;;;;;;;;;8.33;66.97;101811.19;108021;1272;59390;-83
2023/05/30 02:28:09;;;;;;;;;;;;;;;8.38;66.82;101811.41;108182;1269;124695;-83
2023/05/30 02:30:37;;;;;;;;;;;;;;;8.42;66.78;101814.58;108175;1267;65755;-84
2023/05/30 02:33:04;;;;;;;;;;;;;;;8.46;66.76;101816.40;108115;1265;124938;-84
2023/05/30 02:35:31;;;;;;;;;;;;;;;8.51;66.75;101821.54;108118;1265;61305;-84
2023/05/30 02:37:57;;;;;;;;;;;;;;;8.55;66.59;101823.32;108044;1265;60730;-83
2023/05/30 02:40:24;;;;;;;;;;;;;;;8.60;66.73;101827.95;107927;1272;126067;-83
2023/05/30 02:42:51;;;;;;;;;;;;;;;8.66;66.60;101832.26;108179;1265;66851;-83
2023/05/30 02:45:18;;;;;;;;;;;;;;;8.72;66.59;101836.24;108101;1267;125351;-84
2023/05/30 02:47:54;;;;;;;;;;;;;;;8.79;66.54;101838.88;108115;1270;60403;-84
2023/05/30 02:50:21;;;;;;;;;;;;;;;8.86;66.49;101841.48;107970;1265;126024;-84
2023/05/30 02:52:48;;;;;;;;;;;;;;;8.92;66.48;101844.63;108009;1273;72966;-84
2023/05/30 02:55:15;;;;;;;;;;;;;;;8.98;66.38;101838.40;108130;1269;66981;-84
2023/05/30 02:57:42;;;;;;;;;;;;;;;9.05;66.32;101839.10;107843;1270;125246;-84
2023/05/30 03:00:13;;;;;;;;;;;;;;;9.14;66.23;101838.31;108080;1270;59844;-84
2023/05/30 03:02:41;;;;;;;;;;;;;;;9.21;66.08;101840.38;108037;1265;125659;-84
2023/05/30 03:05:09;;;;;;;;;;;;;;;9.26;65.80;101844.67;108288;1267;74041;-84
2023/05/30 03:07:36;;;;;;;;;;;;;;;9.34;65.68;101847.14;108106;1270;66455;-84
2023/05/30 03:10:06;;;;;;;;;;;;;;;9.41;65.59;101843.64;107916;1267;123933;-84
2023/05/30 03:12:39;;;;;;;;;;;;;;;9.50;65.49;101843.88;108212;1265;59280;-83
2023/05/30 03:15:06;;;;;;;;;;;;;;;9.63;65.37;101846.37;108064;1266;124617;-83
2023/05/30 03:17:33;;;;;;;;;;;;;;;9.75;65.28;101844.84;108143;1265;73418;-83
2023/05/30 03:20:00;;;;;;;;;;;;;;;9.89;65.16;101842.84;108181;1270;65816;-83
2023/05/30 03:22:27;;;;;;;;;;;;;;;10.05;64.97;101844.60;108054;1265;125027;-82
2023/05/30 03:24:54;;;;;;;;;;;;;;;10.38;65.15;101846.96;108020;1270;59566;-82
2023/05/30 03:27:21;;;;;;;;;;;;;;;11.47;66.16;101845.95;108171;1265;125601;-83
2023/05/30 03:29:48;;;;;;;;;;;;;;;13.21;66.24;101841.39;108224;1265;72898;-83
2023/05/30 03:32:15;;;;;;;;;;;;;;;14.94;64.66;101836.02;108213;1266;124582;-84
2023/05/30 03:34:45;;;;;;;;;;;;;;;16.09;62.04;101833.64;108146;1267;73274;-83
2023/05/30 03:37:11;;;;;;;;;;;;;;;16.28;58.98;101831.00;108098;1267;59204;-83
2023/05/30 03:39:38;;;;;;;;;;;;;;;16.25;58.51;101828.47;108077;1265;126737;-84
2023/05/30 03:42:06;;;;;;;;;;;;;;;16.98;58.13;101828.17;108259;1269;73400;-83
2023/05/30 03:44:37;;;;;;;;;;;;;;;17.51;56.64;101830.55;107840;1265;124649;-84
2023/05/30 03:47:06;;;;;;;;;;;;;;;17.73;55.45;101829.96;108012;1267;71323;-85
2023/05/30 03:49:33;;;;;;;;;;;;;;;18.73;55.73;101828.17;108269;1269;59349;-86
2023/05/30 03:52:00;;;;;;;;;;;;;;;20.38;54.74;101832.64;108022;1267;124584;-86
2023/05/30 03:54:29;;;;;;;;;;;;;;;22.04;53.02;101830.45;108237;1269;73105;-85
2023/05/30 03:57:00;;;;;;;;;;;;;;;23.43;50.61;101834.73;108029;1272;125238;-85
2023/05/30 03:59:28;;;;;;;;;;;;;;;24.44;48.58;101836.51;108011;1272;73911;-87
2023/05/30 04:01:58;;;;;;;;;;;;;;;25.24;46.66;101839.32;108253;1265;59499;-87
2023/05/30 04:04:26;;;;;;;;;;;;;;;25.86;45.11;101846.19;108162;1267;126616;-87
2023/05/30 04:06:53;;;;;;;;;;;;;;;26.39;43.53;101847.73;108220;1267;75240;-88
2023/05/30 04:09:20;;;;;;;;;;;;;;;26.89;42.62;101846.70;107968;1267;124690;-83
2023/05/30 04:11:47;;;;;;;;;;;;;;;27.53;41.49;101848.97;108184;1265;72667;-84
2023/05/30 04:14:32;;;;;;;;;;;;;;;28.20;40.59;101844.67;108037;1267;124593;-83
2023/05/30 04:17:05;;;;;;;;;;;;;;;29.01;39.26;101846.38;107375;1270;61268;-85
2023/05/30 04:19:32;;;;;;;;;;;;;;;29.73;38.33;101850.67;106912;1272;73494;-84
2023/05/30 04:22:03;;;;;;;;;;;;;;;30.34;37.35;101849.96;106895;1271;124411;-84
2023/05/30 04:24:33;;;;;;;;;;;;;;;31.03;36.52;101854.70;106734;1267;62837;-85
2023/05/30 04:27:17;;;;;;;;;;;;;;;32.01;35.60;101855.21;106583;1267;124999;-85
2023/05/30 04:29:46;;;;;;;;;;;;;;;32.75;34.12;101857.79;106825;1267;61240;-88
2023/05/30 04:32:20;;;;;;;;;;;;;;;33.19;33.12;101858.26;106811;1273;67126;-90
2023/05/30 04:34:48;;;;;;;;;;;;;;;33.68;32.52;101862.59;107122;1267;61196;-90
2023/05/30 04:37:18;;;;;;;;;;;;;;;34.26;31.83;101863.94;107084;1272;65086;-87
2023/05/30 04:39:45;;;;;;;;;;;;;;;34.94;30.92;101863.42;107088;1266;61961;-83
2023/05/30 04:42:12;;;;;;;;;;;;;;;35.56;30.16;101861.67;107172;1266;61224;-83
2023/05/30 04:44:42;;;;;;;;;;;;;;;36.10;29.41;101861.88;106954;1267;124740;-83
2023/05/30 04:47:12;;;;;;;;;;;;;;;36.65;28.57;101863.77;106736;1273;59624;-83
2023/05/30 04:49:44;;;;;;;;;;;;;;;37.16;27.79;101856.98;107043;1267;73145;-84
2023/05/30 04:52:16;;;;;;;;;;;;;;;37.69;27.22;101857.86;107076;1273;124416;-84
2023/05/30 04:54:45;;;;;;;;;;;;;;;38.15;26.69;101857.96;107167;1267;59741;-81
2023/05/30 04:57:13;;;;;;;;;;;;;;;38.68;25.87;101855.88;106915;1266;125173;-81
2023/05/30 04:59:47;;;;;;;;;;;;;;;38.84;25.32;101853.14;107199;1267;59371;-80
2023/05/30 05:02:17;;;;;;;;;;;;;;;39.08;24.86;101852.20;107205;1267;65028;-82
2023/05/30 05:04:44;;;;;;;;;;;;;;;39.39;24.31;101854.31;107146;1270;124524;-80
2023/05/30 05:07:18;;;;;;;;;;;;;;;39.74;23.80;101858.50;107426;1267;59541;-82
2023/05/30 05:09:45;;;;;;;;;;;;;;;40.03;23.26;101862.42;106930;1270;125677;-84
2023/05/30 05:12:18;;;;;;;;;;;;;;;40.00;22.84;101864.66;106601;1267;59749;-84
2023/05/30 05:14:46;;;;;;;;;;;;;;;40.17;22.42;101862.88;106673;1267;124492;-84
2023/05/30 05:17:16;;;;;;;;;;;;;;;40.16;22.14;101862.66;107024;1267;61198;-83
2023/05/30 05:27:35;;;;;;;;;;;;;;;;;;;;;
2023/05/30 05:30:40;;;;;;;;;;;;;;;41.03;20.25;101865.89;106221;1273;64504;-83
2023/05/30 05:36:52;;;;;;;;;;;;;;;40.68;19.35;101871.86;105971;1279;60603;-82
2023/05/30 05:39:20;;;;;;;;;;;;;;;38.57;19.14;101868.05;105993;1289;124931;-82
2023/05/30 05:41:46;;;;;;;;;;;;;;;36.07;19.43;101876.55;106497;1273;59815;-83
2023/05/30 05:44:13;;;;;;;;;;;;;;;33.58;20.13;101876.64;106133;1279;62900;-81
2023/05/30 05:46:40;;;;;;;;;;;;;;;31.44;21.14;101879.52;106012;1279;124337;-81
2023/05/30 05:49:07;;;;;;;;;;;;;;;29.65;22.13;101875.70;105826;1276;61404;-81
2023/05/30 05:51:37;;;;;;;;;;;;;;;28.07;23.04;101884.58;105985;1276;124965;-81
2023/05/30 05:54:04;;;;;;;;;;;;;;;26.89;23.77;101882.54;106068;1273;67112;-83
2023/05/30 05:56:31;;;;;;;;;;;;;;;25.87;24.36;101880.14;106316;1274;74245;-83
2023/05/30 05:59:01;;;;;;;;;;;;;;;24.95;24.87;101879.69;106042;1273;124733;-83
2023/05/30 06:01:28;;;;;;;;;;;;;;;24.18;25.56;101884.42;107599;1270;59533;-83
2023/05/30 06:03:55;;;;;;;;;;;;;;;23.51;26.37;101892.17;107674;1270;124557;-83
2023/05/30 06:06:22;;;;;;;;;;;;;;;22.95;27.08;101895.55;107743;1265;67900;-82
2023/05/30 06:08:52;;;;;;;;;;;;;;;22.46;27.41;101898.57;107847;1270;124673;-83
2023/05/30 06:11:20;;;;;;;;;;;;;;;22.00;27.75;101897.52;108129;1267;59116;-83
2023/05/30 06:13:47;;;;;;;;;;;;;;;21.55;28.01;101903.89;108166;1265;60172;-83
2023/05/30 06:16:15;;;;;;;;;;;;;;;21.17;28.25;101902.52;107919;1281;124772;-83
2023/05/30 06:18:42;;;;;;;;;;;;;;;20.81;28.60;101911.77;108093;1267;65739;-83
2023/05/30 06:21:13;;;;;;;;;;;;;;;20.50;28.83;101912.93;107948;1265;126396;-83
2023/05/30 06:23:43;;;;;;;;;;;;;;;20.24;29.36;101919.45;108014;1267;59942;-82
2023/05/30 06:26:11;;;;;;;;;;;;;;;20.08;29.68;101922.40;108156;1265;60260;-83
2023/05/30 06:28:43;;;;;;;;;;;;;;;19.93;30.08;101922.35;107957;1265;125598;-83
2023/05/30 06:31:11;;;;;;;;;;;;;;;19.75;30.11;101920.46;108063;1273;67041;-83
2023/05/30 06:33:39;;;;;;;;;;;;;;;19.62;30.37;101923.38;107876;1265;124271;-82
2023/05/30 06:36:07;;;;;;;;;;;;;;;19.48;30.59;101922.75;107852;1265;59508;-82
2023/05/30 06:38:35;;;;;;;;;;;;;;;19.35;30.76;101919.98;108114;1267;61352;-83
2023/05/30 06:41:02;;;;;;;;;;;;;;;19.21;30.96;101922.02;108009;1265;124533;-82
2023/05/30 06:43:29;;;;;;;;;;;;;;;19.05;31.11;101922.05;108110;1265;67689;-82
2023/05/30 06:45:56;;;;;;;;;;;;;;;18.91;31.25;101927.98;107916;1265;124636;-82
2023/05/30 06:48:24;;;;;;;;;;;;;;;18.83;31.66;101927.55;108096;1265;59888;-82
2023/05/30 06:50:51;;;;;;;;;;;;;;;18.78;31.92;101928.20;108112;1265;124912;-82
2023/05/30 06:53:18;;;;;;;;;;;;;;;18.71;32.20;101925.44;108111;1265;74952;-82
2023/05/30 06:55:45;;;;;;;;;;;;;;;18.67;32.43;101923.45;108223;1282;69177;-81
2023/05/30 06:58:13;;;;;;;;;;;;;;;18.65;32.54;101921.83;108024;1265;125420;-82
2023/05/30 07:00:41;;;;;;;;;;;;;;;18.59;32.51;101919.64;107882;1267;59347;-82
2023/05/30 07:03:08;;;;;;;;;;;;;;;18.57;32.88;101921.75;107898;1267;124595;-82
2023/05/30 07:05:39;;;;;;;;;;;;;;;18.59;32.74;101923.00;107917;1265;76968;-82
2023/05/30 07:08:07;;;;;;;;;;;;;;;18.58;32.71;101925.86;108259;1267;67118;-82
2023/05/30 07:10:34;;;;;;;;;;;;;;;18.56;32.49;101923.51;108179;1265;126704;-82
2023/05/30 07:13:01;;;;;;;;;;;;;;;18.48;32.47;101919.34;108195;1265;59326;-82
2023/05/30 07:15:31;;;;;;;;;;;;;;;18.44;32.67;101922.67;107970;1265;124741;-83
2023/05/30 07:17:58;;;;;;;;;;;;;;;18.42;32.55;101924.08;108298;1265;74422;-82
2023/05/30 07:20:25;;;;;;;;;;;;;;;18.42;32.62;101927.27;108189;1265;67100;-82
2023/05/30 07:22:52;;;;;;;;;;;;;;;18.43;32.59;101925.68;108083;1265;125544;-82
2023/05/30 07:25:18;;;;;;;;;;;;;;;18.44;32.39;101926.57;108230;1265;59422;-82
2023/05/30 07:27:45;;;;;;;;;;;;;;;18.40;32.34;101929.38;108201;1265;124361;-83
2023/05/30 07:30:12;;;;;;;;;;;;;;;18.40;32.50;101932.77;108209;1265;73401;-82
2023/05/30 07:32:39;;;;;;;;;;;;;;;18.44;32.48;101932.63;108232;1265;67062;-82
2023/05/30 07:35:06;;;;;;;;;;;;;;;18.45;32.62;101931.04;108163;1265;124308;-82
2023/05/30 07:37:36;;;;;;;;;;;;;;;18.50;32.77;101930.91;108226;1265;59244;-82
2023/05/30 07:40:05;;;;;;;;;;;;;;;18.57;33.03;101938.64;108001;1265;126268;-82
2023/05/30 07:42:32;;;;;;;;;;;;;;;18.62;33.02;101942.78;108246;1270;74143;-82
2023/05/30 07:44:59;;;;;;;;;;;;;;;18.63;32.94;101943.50;108163;1265;125249;-82
2023/05/30 07:47:27;;;;;;;;;;;;;;;18.66;33.00;101944.59;108260;1265;71462;-83
2023/05/30 07:49:53;;;;;;;;;;;;;;;18.65;32.90;101946.35;108023;1265;59509;-82
2023/05/30 07:52:20;;;;;;;;;;;;;;;18.64;32.95;101946.17;108142;1265;125435;-82
2023/05/30 07:54:48;;;;;;;;;;;;;;;18.64;32.96;101946.35;108121;1265;74791;-83
2023/05/30 07:57:15;;;;;;;;;;;;;;;18.64;32.94;101947.60;108136;1265;126782;-82
2023/05/30 07:59:42;;;;;;;;;;;;;;;18.63;32.86;101945.45;108201;1265;70157;-83
2023/05/30 08:02:09;;;;;;;;;;;;;;;18.58;32.98;101945.41;108327;1265;59133;-82
2023/05/30 08:04:36;;;;;;;;;;;;;;;18.62;33.32;101945.98;108101;1268;124394;-84
2023/05/30 08:07:03;;;;;;;;;;;;;;;18.69;33.28;101950.31;108119;1267;75822;-82
2023/05/30 08:09:30;;;;;;;;;;;;;;;18.75;33.30;101946.65;107933;1267;125142;-82
2023/05/30 08:11:58;;;;;;;;;;;;;;;18.81;33.45;101951.89;108021;1267;71363;-82
2023/05/30 08:14:24;;;;;;;;;;;;;;;18.88;33.35;101957.30;108090;1265;59527;-82
2023/05/30 08:16:51;;;;;;;;;;;;;;;18.89;33.24;101961.06;108111;1265;125113;-81
2023/05/30 08:19:31;;;;;;;;;;;;;;;18.91;33.13;101961.59;108252;1265;73793;-82
2023/05/30 08:21:58;;;;;;;;;;;;;;;18.95;33.10;101969.81;107922;1265;125116;-82
2023/05/30 08:24:28;;;;;;;;;;;;;;;18.94;32.90;101970.16;108111;1265;71930;-81
2023/05/30 08:27:00;;;;;;;;;;;;;;;18.89;32.64;101963.90;108035;1267;126306;-82
2023/05/30 08:29:33;;;;;;;;;;;;;;;18.85;32.64;101972.57;108137;1265;59817;-81
2023/05/30 08:32:03;;;;;;;;;;;;;;;18.77;32.77;101969.79;108173;1265;75278;-81
2023/05/30 08:34:31;;;;;;;;;;;;;;;18.76;32.84;101971.20;108100;1265;124772;-81
2023/05/30 08:37:03;;;;;;;;;;;;;;;18.77;32.90;101972.10;107997;1267;71828;-81
2023/05/30 08:39:33;;;;;;;;;;;;;;;18.78;32.93;101973.53;108136;1265;124747;-83
2023/05/30 08:42:01;;;;;;;;;;;;;;;18.81;32.91;101975.37;107963;1265;60693;-83
2023/05/30 08:44:29;;;;;;;;;;;;;;;18.81;32.87;101974.66;108177;1265;76923;-83
2023/05/30 08:46:57;;;;;;;;;;;;;;;18.79;32.76;101976.76;108061;1265;124785;-83
2023/05/30 08:49:25;;;;;;;;;;;;;;;18.80;32.97;101975.19;107953;1265;75691;-80
2023/05/30 08:51:56;;;;;;;;;;;;;;;18.85;32.98;101977.02;108103;1267;125355;-83
2023/05/30 08:54:29;;;;;;;;;;;;;;;18.90;32.81;101980.63;108138;1265;60579;-81
2023/05/30 08:57:02;;;;;;;;;;;;;;;18.89;32.64;101980.98;107851;1273;124612;-82
2023/05/30 08:59:29;;;;;;;;;;;;;;;18.89;32.62;101983.27;107998;1265;67644;-83
2023/05/30 09:01:57;;;;;;;;;;;;;;;18.91;32.48;101981.17;108191;1265;72982;-83
2023/05/30 09:04:26;;;;;;;;;;;;;;;18.92;32.53;101980.81;108115;1267;124587;-83
2023/05/30 09:06:54;;;;;;;;;;;;;;;18.98;32.53;101983.38;108010;1265;60817;-83
2023/05/30 09:09:23;;;;;;;;;;;;;;;19.04;32.67;101985.92;107981;1272;128045;-82
2023/05/30 09:11:54;;;;;;;;;;;;;;;19.04;32.56;101980.94;108044;1265;66172;-82
2023/05/30 09:14:22;;;;;;;;;;;;;;;19.02;32.71;101983.77;108119;1265;72143;-82
2023/05/30 09:16:51;;;;;;;;;;;;;;;19.05;32.81;101985.05;108020;1265;124296;-81
2023/05/30 09:19:19;;;;;;;;;;;;;;;19.05;32.71;101987.53;108155;1265;59604;-81
2023/05/30 09:21:49;;;;;;;;;;;;;;;19.02;32.67;101981.82;108128;1265;124685;-81
2023/05/30 09:24:21;;;;;;;;;;;;;;;19.07;32.85;101980.98;108079;1265;66987;-81
2023/05/30 09:27:01;;;;;;;;;;;;;;;19.16;32.89;101979.45;107937;1265;124556;-82
2023/05/30 09:29:29;;;;;;;;;;;;;;;19.27;32.83;101983.46;108073;1265;59188;-82
2023/05/30 09:31:56;;;;;;;;;;;;;;;19.35;32.60;101975.52;108196;1265;60224;-82
2023/05/30 09:34:27;;;;;;;;;;;;;;;19.39;32.53;101968.80;107982;1265;124380;-82
2023/05/30 09:36:55;;;;;;;;;;;;;;;19.41;32.48;101976.65;108084;1265;68945;-82
2023/05/30 09:39:26;;;;;;;;;;;;;;;19.41;32.38;101976.46;107991;1265;124584;-83
2023/05/30 09:41:57;;;;;;;;;;;;;;;19.42;32.52;101974.88;107811;1265;348658;-81
2023/05/30 09:44:26;;;;;;;;;;;;;;;19.48;32.45;101975.98;108128;1265;59582;-82
2023/05/30 09:46:58;;;;;;;;;;;;;;;19.52;32.54;101976.01;107918;1265;125861;-82
2023/05/30 09:49:27;;;;;;;;;;;;;;;19.59;32.57;101976.77;107905;1265;67911;-82
2023/05/30 09:51:59;;;;;;;;;;;;;;;19.62;32.41;101978.75;107914;1265;124519;-82
2023/05/30 09:54:27;;;;;;;;;;;;;;;19.62;32.30;101977.34;107964;1265;59139;-82
2023/05/30 09:56:55;;;;;;;;;;;;;;;19.65;32.38;101977.90;107982;1265;124974;-82
2023/05/30 09:59:28;;;;;;;;;;;;;;;19.72;32.43;101977.60;108071;1272;73666;-83
2023/05/30 10:01:56;;;;;;;;;;;;;;;19.82;32.59;101980.35;108197;1265;67961;-83
2023/05/30 10:04:27;;;;;;;;;;;;;;;19.89;32.43;101979.67;107972;1265;126083;-83
2023/05/30 10:06:56;;;;;;;;;;;;;;;19.91;32.42;101984.67;107902;1272;59259;-83
2023/05/30 10:09:24;;;;;;;;;;;;;;;19.93;32.42;101985.23;107842;1265;124474;-83
2023/05/30 10:11:52;;;;;;;;;;;;;;;20.01;32.44;101979.40;108020;1265;76993;-83
2023/05/30 10:14:23;;;;;;;;;;;;;;;20.11;32.45;101980.86;108087;1265;68596;-83
2023/05/30 10:17:01;;;;;;;;;;;;;;;20.19;32.22;101983.23;107964;1265;124689;-82
2023/05/30 10:20:10;;;;;;;;;;;;;;;20.15;32.14;101983.02;108127;1265;59359;-82
2023/05/30 10:22:41;;;;;;;;;;;;;;;20.18;32.25;101981.45;107483;1271;124313;-82
2023/05/30 10:25:09;;;;;;;;;;;;;;;20.23;32.41;101982.36;107415;1271;76400;-82
2023/05/30 10:27:39;;;;;;;;;;;;;;;20.29;32.69;101980.78;107467;1271;124948;-82
2023/05/30 10:30:07;;;;;;;;;;;;;;;20.34;32.74;101978.31;107499;1274;71873;-82
2023/05/30 10:32:36;;;;;;;;;;;;;;;20.36;32.76;101976.54;107427;1273;59565;-82
2023/05/30 10:35:10;;;;;;;;;;;;;;;20.34;32.74;101977.77;107303;1271;125047;-82
2023/05/30 10:37:39;;;;;;;;;;;;;;;20.28;32.80;101988.61;107361;1271;75753;-82
2023/05/30 10:40:23;;;;;;;;;;;;;;;20.24;32.89;101986.83;107168;1271;124659;-82
2023/05/30 10:43:06;;;;;;;;;;;;;;;20.22;32.97;101988.05;107513;1271;71733;-82
2023/05/30 10:45:38;;;;;;;;;;;;;;;20.21;32.72;101997.48;107349;1273;124715;-82
2023/05/30 10:48:33;;;;;;;;;;;;;;;20.09;32.60;101999.39;107526;1271;60438;-83
2023/05/30 10:51:03;;;;;;;;;;;;;;;19.98;32.63;101995.41;107253;1271;124555;-82
2023/05/30 10:53:39;;;;;;;;;;;;;;;19.94;32.84;101993.96;107578;1265;69209;-84
2023/05/30 10:56:27;;;;;;;;;;;;;;;19.93;32.92;101994.85;108174;1265;73039;-81
2023/05/30 10:58:56;;;;;;;;;;;;;;;19.97;33.09;102001.83;107985;1265;125596;-82
2023/05/30 11:01:30;;;;;;;;;;;;;;;20.02;33.15;101999.53;107947;1265;60725;-82
2023/05/30 11:04:03;;;;;;;;;;;;;;;19.96;33.04;102003.05;107997;1272;125010;-82
2023/05/30 11:06:42;;;;;;;;;;;;;;;19.89;33.00;102005.51;107979;1265;66365;-82
2023/05/30 11:09:20;;;;;;;;;;;;;;;19.81;33.04;102003.49;107951;1266;125099;-82
2023/05/30 11:11:55;;;;;;;;;;;;;;;19.69;33.01;102000.02;107945;1265;59566;-83
2023/05/30 11:14:25;;;;;;;;;;;;;;;19.63;33.35;101995.32;108057;1266;60414;-82
2023/05/30 11:16:56;;;;;;;;;;;;;;;19.66;33.45;101993.02;107914;1265;124781;-82
2023/05/30 11:19:25;;;;;;;;;;;;;;;19.68;33.40;102000.52;108125;1265;66778;-82
2023/05/30 11:25:48;;;;;;;;;;;;;;;19.64;33.49;102007.79;107635;1270;59566;-83
2023/05/30 12:43:03;;;;;;;;;;;;;;;18.38;39.23;102048.79;108222;1267;73459;-81
2023/05/30 12:45:33;;;;;;;;;;;;;;;18.34;39.25;102049.80;107277;1267;64501;-82
2023/05/30 12:48:08;;;;;;;;;;;;;;;18.31;39.31;102047.27;106705;1269;124545;-83
2023/05/30 12:50:38;;;;;;;;;;;;;;;18.29;39.34;102045.45;106735;1270;61349;-82
2023/05/30 12:53:24;;;;;;;;;;;;;;;18.27;39.57;102040.98;106388;1267;125636;-83
2023/05/30 12:55:51;;;;;;;;;;;;;;;18.25;39.51;102054.13;106428;1267;74635;-82
2023/05/30 12:58:18;;;;;;;;;;;;;;;18.25;39.50;102052.86;107923;1267;124489;-83
2023/05/30 13:04:08;;;;;;;;;;;;;;;18.20;39.47;102052.27;106465;1267;124343;-84
2023/05/30 13:06:35;;;;;;;;;;;;;;;18.20;39.69;102055.29;106638;1267;61499;-83
2023/05/30 13:09:06;;;;;;;;;;;;;;;18.18;39.71;102054.02;106546;1267;74781;-83
2023/05/30 13:11:33;;;;;;;;;;;;;;;18.16;39.57;102058.05;106532;1267;124289;-82
2023/05/30 13:14:01;;;;;;;;;;;;;;;18.18;40.03;102057.38;106636;1270;71257;-82
2023/05/30 13:16:28;;;;;;;;;;;;;;;18.22;40.06;102058.33;106387;1267;124586;-82
2023/05/30 13:18:55;;;;;;;;;;;;;;;18.20;40.09;102060.98;106244;1268;60190;-82
2023/05/30 13:21:22;;;;;;;;;;;;;;;18.22;40.15;102072.00;106403;1268;73293;-83
2023/05/30 13:23:49;;;;;;;;;;;;;;;18.23;40.29;102067.23;106077;1267;124307;-83
2023/05/30 13:26:22;;;;;;;;;;;;;;;18.20;39.84;102071.98;106283;1267;71944;-83
2023/05/30 13:28:50;;;;;;;;;;;;;;;18.11;39.81;102080.91;106339;1267;124278;-83
2023/05/30 13:31:28;;;;;;;;;;;;;;;18.06;39.97;102083.33;106655;1267;60978;-85
2023/05/30 13:33:56;;;;;;;;;;;;;;;18.06;40.09;102082.79;106764;1267;73870;-84
2023/05/30 13:36:25;;;;;;;;;;;;;;;18.04;40.05;102083.83;106747;1267;124530;-83
2023/05/30 13:38:52;;;;;;;;;;;;;;;18.00;39.95;102082.71;106681;1267;73377;-83
2023/05/30 13:41:25;;;;;;;;;;;;;;;17.97;40.15;102080.88;106599;1267;124103;-82
2023/05/30 13:43:52;;;;;;;;;;;;;;;17.98;40.23;102092.78;106827;1267;60551;-82
2023/05/30 13:46:19;;;;;;;;;;;;;;;17.98;40.46;102088.72;106529;1267;124452;-82
2023/05/30 13:48:48;;;;;;;;;;;;;;;17.98;40.80;102094.23;106651;1267;65968;-81
2023/05/30 13:51:15;;;;;;;;;;;;;;;17.99;40.97;102092.27;106623;1267;73184;-81
2023/05/30 13:53:42;;;;;;;;;;;;;;;17.96;40.98;102095.06;106419;1267;124829;-84
2023/05/30 13:56:28;;;;;;;;;;;;;;;17.90;41.32;102093.20;106394;1269;59594;-84
2023/05/30 13:58:58;;;;;;;;;;;;;;;17.88;41.94;102098.67;106444;1272;124189;-83
2023/05/30 14:01:39;;;;;;;;;;;;;;;17.87;42.40;102096.70;106397;1267;67015;-84
2023/05/30 14:18:17;;;;;;;;;;;;;;;17.71;43.23;102105.80;107983;1267;124265;-83
2023/05/30 14:20:44;;;;;;;;;;;;;;;17.69;43.59;102111.45;106707;1267;72301;-81
2023/05/30 14:23:18;;;;;;;;;;;;;;;17.69;43.79;102113.40;106704;1275;124954;-81
2023/05/30 14:25:45;;;;;;;;;;;;;;;17.65;44.07;102113.86;106832;1268;59904;-81